Cannelton, West Virginia
Current Conditions -  °F | °C
As of 3:01 AM on Friday 28 Nov 2014 (Local Time) from KCRW Reporting Station
Light Snow Light Snow  
Wind Chill: 20°   Ceiling: 3000
Heat Index: 29°   Visibility: 1mi
Dew Point: 23°   Wind: 10mph
Humidity: 78%   Direction: 300°WNW
Pressure: 30.34"   Gusts: NA
Location:  38.19°N, 81.3°W
Report Text: KCRW 280801Z 30009KT 1SM -SN SCT014 OVC030 M02/M05 A3034 RMK AO2 P0000 T10171050 RVRNO
Loading
Personal Weather Stations






























Interactive Weather Map New forecast layout! Learn more

10-Day Weather Forecast

Advertisements
Track Severe Weather on mobile